createdAt,value
2019-03-25T00:01:33.888Z,44.27
2019-03-25T00:03:59.923Z,44.61
2019-03-25T00:06:25.785Z,44.80
2019-03-25T00:09:04.510Z,44.56
2019-03-25T00:11:19.569Z,44.55
2019-03-25T00:13:45.483Z,44.43
2019-03-25T00:16:11.519Z,44.45
2019-03-25T00:18:37.512Z,44.50
2019-03-25T00:21:03.559Z,44.91
2019-03-25T00:23:29.893Z,44.86
2019-03-25T00:25:56.020Z,45.13
2019-03-25T00:28:21.951Z,45.30
2019-03-25T00:30:47.897Z,45.31
2019-03-25T00:33:13.892Z,44.69
2019-03-25T00:35:39.784Z,44.54
2019-03-25T00:38:05.653Z,44.53
2019-03-25T00:40:31.573Z,44.82
2019-03-25T00:42:57.387Z,44.76
2019-03-25T00:45:23.216Z,45.06
2019-03-25T00:47:49.097Z,45.50
2019-03-25T00:50:15.033Z,45.74
2019-03-25T00:52:40.896Z,45.93
2019-03-25T00:55:06.769Z,46.24
2019-03-25T00:57:32.596Z,46.41
2019-03-25T00:59:58.544Z,46.89
2019-03-25T01:02:28.385Z,47.00
2019-03-25T01:04:54.249Z,47.02
2019-03-25T01:07:20.168Z,47.21
2019-03-25T01:09:46.063Z,47.07
2019-03-25T01:12:11.928Z,46.95
2019-03-25T01:14:37.753Z,47.04
2019-03-25T01:17:03.896Z,47.24
2019-03-25T01:19:29.842Z,47.24
2019-03-25T01:21:55.801Z,47.33
2019-03-25T01:24:21.744Z,47.28
2019-03-25T01:26:47.760Z,47.06
2019-03-25T01:29:13.750Z,46.92
2019-03-25T01:31:39.586Z,46.76
2019-03-25T01:34:05.490Z,46.73
2019-03-25T01:36:31.358Z,46.67
2019-03-25T01:38:57.185Z,46.68
2019-03-25T01:41:23.081Z,47.38
2019-03-25T01:43:48.932Z,47.38
2019-03-25T01:46:14.847Z,48.08
2019-03-25T01:48:40.858Z,48.34
2019-03-25T01:51:06.666Z,48.57
2019-03-25T01:53:32.506Z,48.65
2019-03-25T01:55:58.447Z,48.63
2019-03-25T01:58:24.384Z,48.53
2019-03-25T02:00:50.230Z,48.27
2019-03-25T02:03:16.114Z,48.03
2019-03-25T02:05:41.935Z,48.10
2019-03-25T02:08:07.897Z,47.73
2019-03-25T02:10:33.852Z,48.01
2019-03-25T02:12:59.780Z,48.24
2019-03-25T02:15:25.605Z,48.32
2019-03-25T02:17:51.472Z,48.49
2019-03-25T02:20:25.819Z,48.57
2019-03-25T02:22:45.513Z,48.47
2019-03-25T02:25:11.327Z,48.46
2019-03-25T02:27:37.307Z,48.40
2019-03-25T02:30:05.438Z,48.40
2019-03-25T02:32:31.322Z,48.29
2019-03-25T02:34:57.195Z,48.32
2019-03-25T02:37:23.095Z,48.18
2019-03-25T02:39:48.998Z,48.41
2019-03-25T02:42:14.820Z,48.22
2019-03-25T02:44:40.766Z,47.88
2019-03-25T02:47:06.756Z,47.50
2019-03-25T02:49:32.699Z,47.77
2019-03-25T02:51:58.596Z,48.36
2019-03-25T02:54:24.437Z,48.59
2019-03-25T02:56:50.293Z,48.22
2019-03-25T02:59:16.379Z,48.55
2019-03-25T03:01:42.214Z,48.94
2019-03-25T03:04:08.049Z,49.08
2019-03-25T03:06:33.914Z,48.78
2019-03-25T03:08:59.739Z,48.65
2019-03-25T03:11:25.598Z,48.33
2019-03-25T03:13:51.573Z,47.91
2019-03-25T03:16:17.390Z,47.62
2019-03-25T03:18:43.239Z,47.21
2019-03-25T03:21:09.235Z,47.95
2019-03-25T03:23:35.068Z,48.89
2019-03-25T03:26:00.900Z,49.48
2019-03-25T03:28:26.852Z,49.92
2019-03-25T03:30:52.777Z,50.38
2019-03-25T03:33:18.712Z,50.42
2019-03-25T03:35:46.549Z,50.41
2019-03-25T03:38:12.235Z,50.18
2019-03-25T03:40:38.136Z,49.82
2019-03-25T03:43:04.196Z,49.45
2019-03-25T03:45:30.052Z,48.81
2019-03-25T03:47:56.129Z,48.72
2019-03-25T03:50:23.860Z,48.87
2019-03-25T03:52:49.810Z,48.77
2019-03-25T03:55:15.778Z,48.96
2019-03-25T03:57:41.623Z,49.79
2019-03-25T04:00:11.266Z,50.32
2019-03-25T04:02:37.191Z,50.68
2019-03-25T04:05:03.437Z,50.86
2019-03-25T04:07:29.256Z,50.84
2019-03-25T04:09:55.149Z,50.66
2019-03-25T04:12:21.194Z,50.43
2019-03-25T04:14:47.129Z,50.43
2019-03-25T04:17:13.130Z,50.48
2019-03-25T04:19:38.972Z,50.03
2019-03-25T04:22:04.910Z,50.05
2019-03-25T04:24:30.895Z,50.12
2019-03-25T04:26:56.719Z,50.23
2019-03-25T04:29:22.653Z,50.21
2019-03-25T04:31:48.856Z,50.33
2019-03-25T04:34:14.679Z,50.28
2019-03-25T04:36:40.649Z,50.50
2019-03-25T04:39:07.067Z,50.42
2019-03-25T04:41:32.982Z,50.50
2019-03-25T04:43:58.809Z,50.37
2019-03-25T04:46:24.827Z,50.48
2019-03-25T04:48:50.727Z,50.36
2019-03-25T04:51:16.666Z,49.63
2019-03-25T04:53:42.499Z,49.99
2019-03-25T04:56:08.489Z,50.52
2019-03-25T04:58:34.333Z,50.74
2019-03-25T05:01:00.160Z,50.81
2019-03-25T05:03:26.024Z,50.94
2019-03-25T05:05:51.955Z,50.73
2019-03-25T05:08:17.803Z,50.74
2019-03-25T05:10:43.748Z,51.26
2019-03-25T05:13:09.698Z,51.07
2019-03-25T05:15:35.539Z,51.20
2019-03-25T05:18:01.476Z,51.08
2019-03-25T05:20:27.571Z,51.13
2019-03-25T05:22:53.371Z,51.04
2019-03-25T05:25:19.334Z,51.10
2019-03-25T05:27:45.423Z,51.35
2019-03-25T05:30:11.552Z,51.35
2019-03-25T05:32:37.384Z,51.43
2019-03-25T05:35:05.373Z,51.51
2019-03-25T05:37:31.197Z,51.62
2019-03-25T05:39:57.185Z,51.52
2019-03-25T05:42:23.044Z,51.15
2019-03-25T05:44:49.001Z,50.50
2019-03-25T05:47:14.918Z,50.16
2019-03-25T05:49:40.850Z,50.28
2019-03-25T05:52:06.673Z,49.95
2019-03-25T05:54:32.568Z,49.86
2019-03-25T05:57:02.655Z,49.96
2019-03-25T05:59:26.197Z,50.08
2019-03-25T06:01:52.052Z,50.56
2019-03-25T06:04:17.961Z,50.88
2019-03-25T06:06:43.794Z,50.43
2019-03-25T06:09:09.746Z,50.03
2019-03-25T06:11:35.755Z,49.81
2019-03-25T06:14:01.700Z,50.09
2019-03-25T06:16:27.646Z,50.02
2019-03-25T06:18:53.719Z,49.34
2019-03-25T06:21:19.548Z,49.08
2019-03-25T06:23:45.395Z,48.70
2019-03-25T06:26:11.296Z,48.87
2019-03-25T06:28:37.117Z,48.42
2019-03-25T06:31:03.175Z,48.57
2019-03-25T06:33:29.055Z,48.55
2019-03-25T06:35:54.884Z,48.57
2019-03-25T06:38:20.715Z,48.82
2019-03-25T06:40:49.126Z,48.71
2019-03-25T06:43:14.445Z,48.56
2019-03-25T06:45:40.282Z,47.85
2019-03-25T06:48:06.165Z,47.85
2019-03-25T06:50:32.006Z,47.41
2019-03-25T06:52:57.872Z,46.99
2019-03-25T06:55:23.805Z,46.91
2019-03-25T06:57:49.846Z,46.63
2019-03-25T07:00:16.477Z,46.30
2019-03-25T07:02:42.407Z,46.30
2019-03-25T07:05:09.639Z,46.08
2019-03-25T07:07:35.636Z,46.09
2019-03-25T07:10:01.643Z,46.09
2019-03-25T07:12:27.774Z,45.71
2019-03-25T07:14:53.652Z,45.94
2019-03-25T07:17:19.711Z,45.79
2019-03-25T07:19:45.578Z,45.47
2019-03-25T07:22:11.390Z,45.29
2019-03-25T07:24:37.275Z,45.01
2019-03-25T07:27:03.352Z,44.81
2019-03-25T07:29:29.196Z,44.16
2019-03-25T07:31:55.060Z,44.32
2019-03-25T07:34:21.039Z,44.07
2019-03-25T07:36:46.897Z,43.71
2019-03-25T07:39:12.828Z,43.08
2019-03-25T07:41:38.756Z,42.74
2019-03-25T07:44:04.952Z,41.95
2019-03-25T07:46:30.867Z,41.71
2019-03-25T07:48:56.720Z,40.95
2019-03-25T07:51:22.723Z,40.99
2019-03-25T07:53:50.961Z,40.10
2019-03-25T07:56:16.393Z,40.00
2019-03-25T07:58:42.353Z,38.63
2019-03-25T08:01:08.330Z,38.67
2019-03-25T08:03:34.164Z,38.54
2019-03-25T08:06:00.225Z,37.55
2019-03-25T08:08:26.138Z,37.59
2019-03-25T08:10:52.075Z,37.34
2019-03-25T08:13:18.014Z,36.92
2019-03-25T08:15:44.066Z,36.79
2019-03-25T08:18:09.930Z,37.04
2019-03-25T08:20:35.887Z,37.00
2019-03-25T08:23:01.813Z,37.04
2019-03-25T08:25:27.690Z,36.17
2019-03-25T08:27:59.859Z,36.16
2019-03-25T08:30:21.445Z,35.81
2019-03-25T08:32:47.390Z,35.40
2019-03-25T08:35:13.408Z,35.49
2019-03-25T08:37:39.238Z,35.32
2019-03-25T08:40:05.842Z,34.94
2019-03-25T08:42:31.647Z,34.56
2019-03-25T08:44:57.596Z,34.20
2019-03-25T08:47:23.516Z,33.89
2019-03-25T08:49:49.386Z,34.07
2019-03-25T08:52:15.264Z,34.19
2019-03-25T08:54:41.083Z,33.82
2019-03-25T08:57:06.958Z,33.61
2019-03-25T08:59:32.805Z,33.81
2019-03-25T09:01:58.717Z,34.25
2019-03-25T09:04:24.641Z,34.12
2019-03-25T09:06:50.468Z,34.45
2019-03-25T09:09:16.390Z,34.36
2019-03-25T09:11:42.384Z,34.96
2019-03-25T09:14:08.338Z,34.27
2019-03-25T09:16:34.161Z,34.04
2019-03-25T09:18:59.994Z,33.90
2019-03-25T09:21:25.821Z,33.83
2019-03-25T09:23:51.916Z,33.74
2019-03-25T09:26:17.767Z,33.64
2019-03-25T09:28:43.599Z,33.82
2019-03-25T09:31:11.742Z,34.00
2019-03-25T09:33:37.955Z,33.41
2019-03-25T09:36:04.177Z,33.32
2019-03-25T09:38:30.078Z,33.19
2019-03-25T09:40:55.910Z,33.44
2019-03-25T09:43:21.762Z,33.44
2019-03-25T09:45:47.852Z,33.47
2019-03-25T09:48:13.786Z,32.96
2019-03-25T09:50:43.248Z,32.56
2019-03-25T09:53:09.488Z,32.43
2019-03-25T09:55:35.370Z,33.20
2019-03-25T09:58:01.326Z,32.88
2019-03-25T10:00:31.314Z,32.32
2019-03-25T10:02:57.553Z,32.66
2019-03-25T10:05:23.396Z,32.65
2019-03-25T10:07:49.239Z,31.68
2019-03-25T10:10:15.305Z,32.10
2019-03-25T10:12:41.226Z,31.90
2019-03-25T10:15:08.368Z,31.39
2019-03-25T10:17:34.225Z,31.64
2019-03-25T10:20:00.432Z,31.67
2019-03-25T10:22:26.286Z,31.91
2019-03-25T10:24:52.173Z,31.76
2019-03-25T10:27:18.117Z,31.50
2019-03-25T10:29:44.070Z,31.44
2019-03-25T10:32:10.232Z,30.93
2019-03-25T10:34:36.271Z,31.48
2019-03-25T10:37:02.228Z,31.55
2019-03-25T10:39:28.036Z,30.98
2019-03-25T10:41:53.881Z,31.43
2019-03-25T10:44:19.863Z,31.31
2019-03-25T10:46:45.798Z,31.04
2019-03-25T10:49:11.676Z,31.37
2019-03-25T10:51:37.603Z,31.59
2019-03-25T10:54:03.543Z,31.71
2019-03-25T10:56:29.386Z,31.34
2019-03-25T10:58:58.284Z,31.20
2019-03-25T11:01:23.199Z,31.04
2019-03-25T11:03:49.117Z,31.05
2019-03-25T11:06:14.964Z,31.12
2019-03-25T11:08:41.001Z,31.67
2019-03-25T11:11:06.912Z,31.28
2019-03-25T11:13:32.957Z,30.94
2019-03-25T11:15:58.871Z,30.81
2019-03-25T11:18:24.879Z,30.51
2019-03-25T11:20:50.776Z,30.28
2019-03-25T11:23:16.601Z,30.02
2019-03-25T11:25:42.489Z,30.95
2019-03-25T11:28:08.429Z,30.85
2019-03-25T11:30:49.693Z,30.88
2019-03-25T11:33:15.530Z,30.82
2019-03-25T11:35:41.366Z,31.06
2019-03-25T11:38:07.319Z,30.49
2019-03-25T11:40:33.233Z,30.76
2019-03-25T11:42:59.404Z,30.68
2019-03-25T11:45:25.430Z,30.54
2019-03-25T11:47:51.300Z,31.11
2019-03-25T11:50:17.385Z,30.54
2019-03-25T11:52:43.396Z,29.37
2019-03-25T11:55:09.499Z,29.27
2019-03-25T11:57:35.535Z,30.05
2019-03-25T12:00:01.695Z,29.14
2019-03-25T12:02:27.624Z,29.79
2019-03-25T12:04:53.579Z,30.03
2019-03-25T12:07:19.502Z,30.37
2019-03-25T12:09:45.570Z,30.19
2019-03-25T12:12:11.479Z,30.18
2019-03-25T12:14:37.374Z,29.85
2019-03-25T12:17:03.403Z,29.84
2019-03-25T12:19:29.268Z,29.95
2019-03-25T12:21:55.270Z,29.43
2019-03-25T12:24:21.200Z,29.71
2019-03-25T12:26:47.097Z,29.99
2019-03-25T12:29:12.913Z,29.11
2019-03-25T12:31:38.996Z,29.14
2019-03-25T12:34:05.066Z,28.50
2019-03-25T12:36:31.116Z,27.01
2019-03-25T12:38:56.953Z,26.78
2019-03-25T12:41:22.940Z,27.72
2019-03-25T12:43:48.875Z,26.78
2019-03-25T12:46:14.730Z,27.25
2019-03-25T12:48:40.707Z,27.41
2019-03-25T12:51:06.758Z,26.98
2019-03-25T12:53:32.700Z,25.98
2019-03-25T12:55:58.754Z,26.02
2019-03-25T12:58:24.593Z,24.09
2019-03-25T13:00:50.561Z,22.95
2019-03-25T13:03:16.530Z,24.87
2019-03-25T13:05:42.546Z,25.83
2019-03-25T13:08:08.478Z,21.73
2019-03-25T13:10:34.548Z,18.91
2019-03-25T13:13:00.461Z,18.54
2019-03-25T13:15:26.397Z,18.55
2019-03-25T13:17:52.273Z,19.94
2019-03-25T13:20:18.212Z,18.98
2019-03-25T13:22:44.063Z,19.15
2019-03-25T13:25:09.982Z,16.54
2019-03-25T13:27:35.947Z,17.54
2019-03-25T13:30:04.270Z,20.38
2019-03-25T13:32:30.162Z,19.75
2019-03-25T13:34:56.016Z,18.20
2019-03-25T13:37:21.844Z,19.80
2019-03-25T13:39:47.859Z,20.91
2019-03-25T13:42:13.703Z,20.87
2019-03-25T13:44:40.249Z,17.43
2019-03-25T13:47:06.128Z,14.92
2019-03-25T13:49:31.950Z,18.30
2019-03-25T13:51:57.784Z,18.76
2019-03-25T13:54:23.792Z,19.27
2019-03-25T13:56:49.750Z,17.12
2019-03-25T13:59:15.615Z,15.67
2019-03-25T14:01:41.555Z,17.49
2019-03-25T14:04:07.500Z,16.46
2019-03-25T14:06:33.461Z,17.39
2019-03-25T14:08:59.305Z,19.66
2019-03-25T14:11:25.419Z,18.97
2019-03-25T14:13:51.281Z,17.42
2019-03-25T14:16:17.171Z,17.05
2019-03-25T14:18:43.046Z,17.41
2019-03-25T14:21:09.114Z,16.71
2019-03-25T14:23:34.946Z,14.78
2019-03-25T14:26:01.198Z,18.72
2019-03-25T14:28:27.158Z,18.00
2019-03-25T14:30:53.057Z,16.72
2019-03-25T14:33:18.915Z,15.54
2019-03-25T14:35:44.823Z,15.54
2019-03-25T14:38:10.786Z,14.83
2019-03-25T14:40:36.855Z,15.34
2019-03-25T14:43:03.270Z,17.59
2019-03-25T14:45:29.256Z,15.82
2019-03-25T14:47:55.337Z,15.66
2019-03-25T14:50:21.324Z,18.32
2019-03-25T14:52:47.291Z,18.02
2019-03-25T14:55:17.223Z,17.20
2019-03-25T14:57:43.112Z,17.51
2019-03-25T15:00:10.374Z,18.57
2019-03-25T15:02:36.283Z,16.66
2019-03-25T15:05:04.484Z,14.42
2019-03-25T15:07:30.449Z,16.86
2019-03-25T15:09:56.433Z,16.34
2019-03-25T15:12:22.331Z,16.07
2019-03-25T15:14:48.263Z,17.16
2019-03-25T15:17:14.263Z,15.31
2019-03-25T15:19:40.137Z,17.54
2019-03-25T15:22:06.070Z,17.56
2019-03-25T15:24:32.105Z,15.17
2019-03-25T15:26:58.037Z,15.51
2019-03-25T15:29:23.857Z,13.59
2019-03-25T15:31:49.749Z,14.81
2019-03-25T15:34:15.611Z,14.82
2019-03-25T15:36:41.441Z,15.31
2019-03-25T15:39:07.685Z,19.17
2019-03-25T15:41:33.524Z,18.99
2019-03-25T15:43:59.477Z,19.56
2019-03-25T15:46:25.378Z,19.21
2019-03-25T15:48:51.312Z,16.49
2019-03-25T15:51:17.143Z,16.19
2019-03-25T15:53:43.037Z,15.65
2019-03-25T15:56:12.410Z,15.51
2019-03-25T15:58:38.290Z,15.51
2019-03-25T16:01:04.238Z,15.02
2019-03-25T16:03:30.123Z,14.57
2019-03-25T16:05:56.247Z,12.97
2019-03-25T16:08:22.075Z,12.44
2019-03-25T16:10:48.011Z,11.82
2019-03-25T16:13:13.894Z,12.29
2019-03-25T16:15:41.745Z,12.45
2019-03-25T16:18:08.159Z,12.45
2019-03-25T16:20:34.221Z,12.02
2019-03-25T16:23:00.174Z,12.24
2019-03-25T16:25:26.500Z,12.48
2019-03-25T16:27:52.323Z,12.22
2019-03-25T16:30:18.273Z,12.61
2019-03-25T16:32:44.122Z,12.85
2019-03-25T16:35:11.565Z,13.06
2019-03-25T16:37:37.545Z,13.22
2019-03-25T16:40:05.574Z,13.27
2019-03-25T16:42:31.563Z,12.69
2019-03-25T16:44:57.612Z,13.07
2019-03-25T16:47:23.580Z,13.66
2019-03-25T16:49:49.381Z,13.47
2019-03-25T16:52:15.555Z,13.88
2019-03-25T16:54:41.381Z,14.26
2019-03-25T16:57:07.511Z,14.84
2019-03-25T16:59:33.482Z,14.90
2019-03-25T17:01:59.323Z,15.16
2019-03-25T17:04:25.302Z,15.34
2019-03-25T17:06:51.342Z,15.46
2019-03-25T17:09:17.167Z,15.87
2019-03-25T17:11:42.998Z,16.37
2019-03-25T17:14:09.028Z,16.82
2019-03-25T17:16:35.103Z,16.40
2019-03-25T17:19:02.125Z,16.60
2019-03-25T17:21:28.121Z,16.38
2019-03-25T17:23:53.985Z,16.18
2019-03-25T17:26:19.967Z,16.45
2019-03-25T17:28:46.918Z,16.76
2019-03-25T17:31:21.033Z,17.05
2019-03-25T17:33:40.698Z,17.42
2019-03-25T17:36:06.559Z,17.31
2019-03-25T17:38:32.553Z,17.43
2019-03-25T17:40:58.395Z,17.45
2019-03-25T17:43:24.224Z,17.31
2019-03-25T17:45:50.178Z,16.76
2019-03-25T17:48:16.021Z,16.67
2019-03-25T17:50:41.966Z,16.48
2019-03-25T17:53:07.905Z,16.57
2019-03-25T17:55:33.932Z,16.11
2019-03-25T17:57:59.958Z,15.98
2019-03-25T18:00:48.114Z,15.93
2019-03-25T18:03:15.347Z,15.52
2019-03-25T18:05:41.238Z,15.59
2019-03-25T18:08:07.095Z,15.56
2019-03-25T18:10:33.059Z,15.63
2019-03-25T18:12:59.014Z,15.76
2019-03-25T18:15:25.007Z,15.74
2019-03-25T18:17:50.940Z,15.78
2019-03-25T18:20:36.755Z,16.03
2019-03-25T18:23:02.730Z,15.83
2019-03-25T18:25:28.657Z,15.84
2019-03-25T18:27:54.544Z,16.03
2019-03-25T18:30:29.903Z,15.84
2019-03-25T18:32:55.868Z,16.03
2019-03-25T18:35:22.319Z,15.85
2019-03-25T18:37:48.167Z,16.19
2019-03-25T18:40:14.025Z,16.46
2019-03-25T18:42:40.121Z,16.11
2019-03-25T18:45:06.414Z,16.27
2019-03-25T18:47:32.480Z,16.14
2019-03-25T18:49:58.583Z,16.18
2019-03-25T18:52:24.464Z,16.25
2019-03-25T18:54:50.545Z,16.31
2019-03-25T18:57:16.516Z,16.02
2019-03-25T18:59:42.566Z,16.11
2019-03-25T19:02:08.622Z,15.90
2019-03-25T19:04:34.538Z,15.82
2019-03-25T19:07:01.263Z,15.88
2019-03-25T19:09:27.685Z,15.82
2019-03-25T19:11:53.524Z,15.87
2019-03-25T19:14:19.351Z,15.25
2019-03-25T19:16:45.379Z,15.12
2019-03-25T19:19:11.185Z,15.16
2019-03-25T19:21:37.361Z,15.13
2019-03-25T19:24:03.429Z,15.02
2019-03-25T19:26:29.281Z,14.99
2019-03-25T19:28:55.109Z,14.96
2019-03-25T19:31:21.081Z,14.99
2019-03-25T19:33:46.897Z,14.79
2019-03-25T19:36:12.913Z,14.75
2019-03-25T19:38:38.743Z,14.64
2019-03-25T19:41:04.584Z,14.91
2019-03-25T19:43:30.453Z,14.80
2019-03-25T19:45:56.276Z,14.78
2019-03-25T19:48:22.211Z,14.71
2019-03-25T19:50:48.265Z,14.77
2019-03-25T19:53:18.927Z,14.46
2019-03-25T19:55:42.199Z,14.24
2019-03-25T19:58:08.157Z,13.82
2019-03-25T20:00:37.949Z,13.90
2019-03-25T20:03:04.713Z,13.89
2019-03-25T20:05:30.706Z,13.85
2019-03-25T20:07:57.704Z,13.35
2019-03-25T20:10:34.482Z,13.35
2019-03-25T20:13:00.954Z,13.05
2019-03-25T20:15:27.256Z,12.75
2019-03-25T20:17:53.064Z,12.69
2019-03-25T20:20:18.973Z,12.56
2019-03-25T20:22:44.885Z,12.56
2019-03-25T20:25:10.931Z,12.58
2019-03-25T20:27:36.795Z,12.57
2019-03-25T20:30:06.460Z,12.61
2019-03-25T20:32:32.466Z,12.63
2019-03-25T20:34:58.373Z,12.41
2019-03-25T20:37:24.216Z,12.65
2019-03-25T20:39:50.085Z,12.54
2019-03-25T20:42:15.955Z,12.78
2019-03-25T20:44:41.777Z,12.69
2019-03-25T20:47:07.616Z,13.08
2019-03-25T20:49:33.605Z,13.25
2019-03-25T20:51:59.635Z,13.28
2019-03-25T20:54:25.610Z,13.38
2019-03-25T20:56:51.461Z,13.35
2019-03-25T20:59:18.247Z,13.52
2019-03-25T21:01:44.315Z,13.44
2019-03-25T21:04:10.238Z,13.66
2019-03-25T21:06:36.514Z,13.96
2019-03-25T21:09:04.599Z,13.94
2019-03-25T21:11:30.639Z,14.41
2019-03-25T21:13:56.922Z,14.44
2019-03-25T21:16:22.862Z,14.35
2019-03-25T21:18:48.841Z,14.78
2019-03-25T21:21:14.831Z,14.68
2019-03-25T21:23:40.706Z,15.01
2019-03-25T21:26:06.785Z,15.09
2019-03-25T21:28:32.817Z,15.40
2019-03-25T21:30:58.682Z,15.43
2019-03-25T21:33:24.537Z,15.29
2019-03-25T21:35:50.653Z,15.43
2019-03-25T21:38:16.673Z,15.54
2019-03-25T21:40:42.948Z,15.89
2019-03-25T21:43:09.104Z,16.27
2019-03-25T21:45:35.020Z,16.52
2019-03-25T21:48:00.979Z,16.57
2019-03-25T21:50:26.884Z,16.81
2019-03-25T21:52:53.097Z,17.01
2019-03-25T21:55:19.046Z,17.20
2019-03-25T21:57:45.200Z,17.21
2019-03-25T22:00:11.590Z,17.43
2019-03-25T22:02:37.426Z,17.57
2019-03-25T22:05:05.497Z,17.72
2019-03-25T22:07:31.500Z,17.76
2019-03-25T22:09:57.566Z,17.99
2019-03-25T22:12:23.578Z,17.87
2019-03-25T22:14:49.532Z,17.46
2019-03-25T22:17:15.385Z,16.78
2019-03-25T22:19:41.238Z,17.23
2019-03-25T22:22:07.213Z,17.15
2019-03-25T22:24:33.081Z,16.64
2019-03-25T22:26:58.903Z,16.46
2019-03-25T22:29:24.832Z,16.28
2019-03-25T22:31:51.053Z,15.92
2019-03-25T22:34:16.947Z,16.00
2019-03-25T22:36:42.782Z,16.24
2019-03-25T22:39:08.893Z,15.95
2019-03-25T22:41:35.145Z,15.42
2019-03-25T22:44:01.351Z,15.52
2019-03-25T22:46:27.441Z,15.40
2019-03-25T22:48:53.305Z,15.10
2019-03-25T22:51:19.147Z,15.37
2019-03-25T22:53:45.068Z,15.80
2019-03-25T22:56:11.041Z,15.75
2019-03-25T22:58:37.208Z,15.71
2019-03-25T23:01:03.715Z,15.84
2019-03-25T23:03:39.133Z,15.63
2019-03-25T23:05:57.660Z,16.39
2019-03-25T23:08:23.546Z,15.48
2019-03-25T23:10:49.729Z,15.06
2019-03-25T23:13:15.789Z,15.53
2019-03-25T23:15:41.774Z,15.55
2019-03-25T23:18:07.844Z,15.64
2019-03-25T23:20:33.683Z,15.45
2019-03-25T23:22:59.729Z,15.40
2019-03-25T23:25:25.564Z,16.07
2019-03-25T23:27:51.473Z,15.40
2019-03-25T23:30:17.593Z,15.35
2019-03-25T23:32:43.629Z,15.78
2019-03-25T23:35:09.661Z,16.04
2019-03-25T23:37:35.777Z,17.17
2019-03-25T23:40:04.234Z,16.98
2019-03-25T23:42:30.089Z,17.76
2019-03-25T23:44:56.002Z,18.22
2019-03-25T23:47:22.067Z,18.04
2019-03-25T23:49:48.010Z,18.15
2019-03-25T23:52:13.923Z,18.22
2019-03-25T23:54:39.982Z,17.95
2019-03-25T23:57:05.953Z,18.02
2019-03-25T23:59:32.013Z,17.74
